createdAt,value
2022-12-08T00:01:14.337Z,18.85
2022-12-08T00:03:41.546Z,18.82
2022-12-08T00:06:44.895Z,18.76
2022-12-08T00:09:24.828Z,18.77
2022-12-08T00:12:12.431Z,18.77
2022-12-08T00:14:40.103Z,18.74
2022-12-08T00:17:07.076Z,18.65
2022-12-08T00:19:33.908Z,18.72
2022-12-08T00:22:00.540Z,18.70
2022-12-08T00:24:31.296Z,18.67
2022-12-08T00:26:57.823Z,18.66
2022-12-08T00:29:24.296Z,18.67
2022-12-08T00:31:50.957Z,18.66
2022-12-08T00:34:17.562Z,18.65
2022-12-08T00:36:44.334Z,18.64
2022-12-08T00:39:12.224Z,18.62
2022-12-08T00:41:57.716Z,18.62
2022-12-08T00:44:24.643Z,18.60
2022-12-08T00:46:51.154Z,18.59
2022-12-08T00:49:18.119Z,18.58
2022-12-08T00:51:44.992Z,18.53
2022-12-08T00:54:11.855Z,18.56
2022-12-08T00:56:38.593Z,18.56
2022-12-08T00:59:06.379Z,18.53
2022-12-08T01:01:34.199Z,18.50
2022-12-08T01:04:05.300Z,18.52
2022-12-08T01:06:31.807Z,18.51
2022-12-08T01:08:58.272Z,18.51
2022-12-08T01:11:24.773Z,18.48
2022-12-08T01:13:51.337Z,18.48
2022-12-08T01:16:26.799Z,18.47
2022-12-08T01:18:53.602Z,18.48
2022-12-08T01:21:20.840Z,18.47
2022-12-08T01:23:47.501Z,18.40
2022-12-08T01:26:15.831Z,18.45
2022-12-08T01:28:42.673Z,18.43
2022-12-08T01:31:14.481Z,18.43
2022-12-08T01:33:41.356Z,18.41
2022-12-08T01:36:09.289Z,18.41
2022-12-08T01:38:35.826Z,18.41
2022-12-08T01:41:02.405Z,18.41
2022-12-08T01:43:58.769Z,18.40
2022-12-08T01:46:26.218Z,18.39
2022-12-08T01:48:57.180Z,18.39
2022-12-08T01:51:23.831Z,18.36
2022-12-08T01:53:50.720Z,18.36
2022-12-08T01:56:30.236Z,18.37
2022-12-08T01:58:56.812Z,18.37
2022-12-08T02:01:23.758Z,18.34
2022-12-08T02:03:58.075Z,18.29
2022-12-08T02:06:26.511Z,18.29
2022-12-08T02:08:55.120Z,18.31
2022-12-08T02:11:21.881Z,18.29
2022-12-08T02:13:50.338Z,18.28
2022-12-08T02:16:35.507Z,18.27
2022-12-08T02:19:31.669Z,18.26
2022-12-08T02:22:00.844Z,18.27
2022-12-08T02:24:49.307Z,18.26
2022-12-08T02:27:44.166Z,18.26
2022-12-08T02:30:21.647Z,18.25
2022-12-08T02:33:25.888Z,18.28
2022-12-08T02:35:56.829Z,18.26
2022-12-08T02:38:37.129Z,18.25
2022-12-08T02:41:03.604Z,18.25
2022-12-08T02:43:35.883Z,18.24
2022-12-08T02:46:05.828Z,18.23
2022-12-08T02:48:33.440Z,18.22
2022-12-08T02:51:00.017Z,18.22
2022-12-08T02:53:28.393Z,18.20
2022-12-08T02:56:03.947Z,18.19
2022-12-08T02:58:42.955Z,18.19
2022-12-08T03:01:30.213Z,18.18
2022-12-08T03:04:05.979Z,18.17
2022-12-08T03:06:46.669Z,18.15
2022-12-08T03:09:35.447Z,18.16
2022-12-08T03:12:22.941Z,18.14
2022-12-08T03:14:53.334Z,18.14
2022-12-08T03:17:22.205Z,18.12
2022-12-08T03:19:49.101Z,18.13
2022-12-08T03:22:19.460Z,18.10
2022-12-08T03:24:46.742Z,18.11
2022-12-08T03:27:20.469Z,18.10
2022-12-08T03:29:48.583Z,18.10
2022-12-08T03:32:27.228Z,18.10
2022-12-08T03:34:54.588Z,18.08
2022-12-08T03:37:21.445Z,18.08
2022-12-08T03:39:48.344Z,18.07
2022-12-08T03:42:14.840Z,18.07
2022-12-08T03:44:41.381Z,18.06
2022-12-08T03:47:07.876Z,18.06
2022-12-08T03:49:34.661Z,18.06
2022-12-08T03:52:01.206Z,18.05
2022-12-08T03:54:27.763Z,18.03
2022-12-08T03:56:54.275Z,18.04
2022-12-08T03:59:20.824Z,18.04
2022-12-08T04:01:47.404Z,18.04
2022-12-08T04:04:13.897Z,18.03
2022-12-08T04:06:40.439Z,18.02
2022-12-08T04:09:06.962Z,18.03
2022-12-08T04:11:33.513Z,18.01
2022-12-08T04:14:00.010Z,18.01
2022-12-08T04:16:27.900Z,17.98
2022-12-08T04:18:54.518Z,17.99
2022-12-08T04:21:21.535Z,17.99
2022-12-08T04:23:48.412Z,18.00
2022-12-08T04:26:15.310Z,17.98
2022-12-08T04:28:41.882Z,17.99
2022-12-08T04:31:08.550Z,17.97
2022-12-08T04:33:35.360Z,17.96
2022-12-08T04:36:03.034Z,17.96
2022-12-08T04:38:29.854Z,17.98
2022-12-08T04:40:56.400Z,17.96
2022-12-08T04:43:22.921Z,17.96
2022-12-08T04:45:49.415Z,17.95
2022-12-08T04:48:16.010Z,17.95
2022-12-08T04:50:44.399Z,17.94
2022-12-08T04:53:11.668Z,17.89
2022-12-08T04:55:41.285Z,17.88
2022-12-08T04:58:07.784Z,17.90
2022-12-08T05:00:34.272Z,17.90
2022-12-08T05:03:00.931Z,17.90
2022-12-08T05:05:27.526Z,17.90
2022-12-08T05:07:54.071Z,17.89
2022-12-08T05:10:20.648Z,17.89
2022-12-08T05:12:47.255Z,17.89
2022-12-08T05:15:13.770Z,17.88
2022-12-08T05:17:40.275Z,17.89
2022-12-08T05:20:07.309Z,17.90
2022-12-08T05:22:33.840Z,17.91
2022-12-08T05:25:00.476Z,17.93
2022-12-08T05:27:27.001Z,17.95
2022-12-08T05:29:53.556Z,17.95
2022-12-08T05:32:20.067Z,18.00
2022-12-08T05:34:46.525Z,18.03
2022-12-08T05:37:13.141Z,18.02
2022-12-08T05:39:39.753Z,17.95
2022-12-08T05:42:06.437Z,18.03
2022-12-08T05:44:33.046Z,18.04
2022-12-08T05:46:59.668Z,18.06
2022-12-08T05:49:26.431Z,18.12
2022-12-08T05:51:53.094Z,18.15
2022-12-08T05:54:19.702Z,18.21
2022-12-08T05:56:46.260Z,18.23
2022-12-08T05:59:12.855Z,18.26
2022-12-08T06:01:39.529Z,18.29
2022-12-08T06:04:06.081Z,18.32
2022-12-08T06:06:34.835Z,18.25
2022-12-08T06:09:03.627Z,18.38
2022-12-08T06:11:31.125Z,18.40
2022-12-08T06:13:58.339Z,18.42
2022-12-08T06:16:26.268Z,18.42
2022-12-08T06:18:53.238Z,18.48
2022-12-08T06:21:20.227Z,18.52
2022-12-08T06:23:51.126Z,18.54
2022-12-08T06:26:17.936Z,18.58
2022-12-08T06:28:44.589Z,18.61
2022-12-08T06:31:15.576Z,18.63
2022-12-08T06:33:42.298Z,18.64
2022-12-08T06:36:10.549Z,18.64
2022-12-08T06:38:41.767Z,18.69
2022-12-08T06:41:10.197Z,18.72
2022-12-08T06:43:36.791Z,18.74
2022-12-08T06:46:06.149Z,18.75
2022-12-08T06:48:32.727Z,18.77
2022-12-08T06:51:09.689Z,18.80
2022-12-08T06:53:36.499Z,18.82
2022-12-08T06:56:03.844Z,18.83
2022-12-08T06:58:30.368Z,18.86
2022-12-08T07:00:56.936Z,18.87
2022-12-08T07:03:23.493Z,18.90
2022-12-08T07:05:50.036Z,18.93
2022-12-08T07:08:16.616Z,18.93
2022-12-08T07:10:43.359Z,18.96
2022-12-08T07:13:09.896Z,18.98
2022-12-08T07:15:36.423Z,18.97
2022-12-08T07:18:02.951Z,19.01
2022-12-08T07:20:29.518Z,19.03
2022-12-08T07:22:56.100Z,19.03
2022-12-08T07:25:22.701Z,19.05
2022-12-08T07:27:51.359Z,19.06
2022-12-08T07:30:17.896Z,19.08
2022-12-08T07:32:44.812Z,19.09
2022-12-08T07:35:11.464Z,19.10
2022-12-08T07:37:38.413Z,19.11
2022-12-08T07:40:06.769Z,19.12
2022-12-08T07:42:33.679Z,19.15
2022-12-08T07:45:00.724Z,19.17
2022-12-08T07:47:27.329Z,19.17
2022-12-08T07:49:53.805Z,19.21
2022-12-08T07:52:20.362Z,19.21
2022-12-08T07:54:47.297Z,19.23
2022-12-08T07:57:14.086Z,19.24
2022-12-08T07:59:40.550Z,19.26
2022-12-08T08:02:24.351Z,19.25
2022-12-08T08:04:52.238Z,19.27
2022-12-08T08:07:18.868Z,19.31
2022-12-08T08:09:45.734Z,19.31
2022-12-08T08:12:30.816Z,19.32
2022-12-08T08:14:59.097Z,19.29
2022-12-08T08:17:25.760Z,19.33
2022-12-08T08:19:52.414Z,19.34
2022-12-08T08:22:18.972Z,19.35
2022-12-08T08:24:45.482Z,19.35
2022-12-08T08:27:12.343Z,19.27
2022-12-08T08:29:38.949Z,19.36
2022-12-08T08:32:05.763Z,19.36
2022-12-08T08:34:32.329Z,19.35
2022-12-08T08:36:58.927Z,19.33
2022-12-08T08:39:25.565Z,19.32
2022-12-08T08:41:52.331Z,19.32
2022-12-08T08:44:18.822Z,19.34
2022-12-08T08:46:45.367Z,19.31
2022-12-08T08:49:11.960Z,19.30
2022-12-08T08:51:38.607Z,19.31
2022-12-08T08:54:05.180Z,19.33
2022-12-08T08:56:31.850Z,19.33
2022-12-08T08:58:58.351Z,19.34
2022-12-08T09:01:27.420Z,19.33
2022-12-08T09:03:54.501Z,19.34
2022-12-08T09:06:21.634Z,19.34
2022-12-08T09:08:48.576Z,19.33
2022-12-08T09:11:15.449Z,19.32
2022-12-08T09:13:42.132Z,19.32
2022-12-08T09:16:09.171Z,19.30
2022-12-08T09:18:35.795Z,19.28
2022-12-08T09:21:11.484Z,19.29
2022-12-08T09:23:37.974Z,19.21
2022-12-08T09:26:05.149Z,19.28
2022-12-08T09:28:32.466Z,19.26
2022-12-08T09:30:59.094Z,19.24
2022-12-08T09:33:25.688Z,19.26
2022-12-08T09:35:52.242Z,19.25
2022-12-08T09:38:18.807Z,19.25
2022-12-08T09:40:52.903Z,19.06
2022-12-08T09:43:40.100Z,19.09
2022-12-08T09:46:11.442Z,19.12
2022-12-08T09:48:42.102Z,19.13
2022-12-08T09:51:09.298Z,19.13
2022-12-08T09:53:37.200Z,19.13
2022-12-08T09:56:08.562Z,19.12
2022-12-08T09:58:52.508Z,19.13
2022-12-08T10:01:20.632Z,19.12
2022-12-08T10:03:47.900Z,19.10
2022-12-08T10:06:30.764Z,19.10
2022-12-08T10:09:08.840Z,19.11
2022-12-08T10:11:45.521Z,19.10
2022-12-08T10:14:49.885Z,19.09
2022-12-08T10:17:24.390Z,19.10
2022-12-08T10:19:55.892Z,19.08
2022-12-08T10:22:24.760Z,19.06
2022-12-08T10:25:01.296Z,19.08
2022-12-08T10:27:27.953Z,19.07
2022-12-08T10:29:54.475Z,19.06
2022-12-08T10:32:23.535Z,19.04
2022-12-08T10:35:05.316Z,19.05
2022-12-08T10:37:31.994Z,19.04
2022-12-08T10:40:01.566Z,19.05
2022-12-08T10:42:34.467Z,19.05
2022-12-08T10:45:15.242Z,19.05
2022-12-08T10:47:45.036Z,19.04
2022-12-08T10:50:32.169Z,19.04
2022-12-08T10:53:07.535Z,19.03
2022-12-08T10:55:49.032Z,19.02
2022-12-08T10:58:27.218Z,19.02
2022-12-08T11:00:56.850Z,19.02
2022-12-08T11:03:51.428Z,19.02
2022-12-08T11:06:26.803Z,19.01
2022-12-08T11:08:55.435Z,19.01
2022-12-08T11:11:29.053Z,19.01
2022-12-08T11:13:56.260Z,19.00
2022-12-08T11:16:23.102Z,19.00
2022-12-08T11:18:56.410Z,18.96
2022-12-08T11:21:31.554Z,18.97
2022-12-08T11:23:58.062Z,18.97
2022-12-08T11:26:32.765Z,18.98
2022-12-08T11:28:59.341Z,18.97
2022-12-08T11:31:35.065Z,18.97
2022-12-08T11:34:02.043Z,18.96
2022-12-08T11:36:30.348Z,18.96
2022-12-08T11:38:59.845Z,18.96
2022-12-08T11:41:30.757Z,18.95
2022-12-08T11:44:18.460Z,18.95
2022-12-08T11:47:08.176Z,18.93
2022-12-08T11:49:38.542Z,18.90
2022-12-08T11:52:23.867Z,18.91
2022-12-08T11:55:01.555Z,18.90
2022-12-08T11:57:29.748Z,18.89
2022-12-08T11:59:57.469Z,18.90
2022-12-08T12:02:26.420Z,18.91
2022-12-08T12:04:57.112Z,18.88
2022-12-08T12:07:52.140Z,18.87
2022-12-08T12:10:30.648Z,18.87
2022-12-08T12:13:22.644Z,18.85
2022-12-08T12:16:18.957Z,18.87
2022-12-08T12:18:56.301Z,18.83
2022-12-08T12:21:35.101Z,18.87
2022-12-08T12:24:27.506Z,18.86
2022-12-08T12:27:06.679Z,18.87
2022-12-08T12:29:36.025Z,18.86
2022-12-08T12:32:12.371Z,18.87
2022-12-08T12:34:48.231Z,18.87
2022-12-08T12:37:17.339Z,18.85
2022-12-08T12:39:53.828Z,18.87
2022-12-08T12:42:42.420Z,18.88
2022-12-08T12:45:22.824Z,18.88
2022-12-08T12:48:13.532Z,18.88
2022-12-08T12:50:44.866Z,18.87
2022-12-08T12:53:17.910Z,18.86
2022-12-08T12:56:00.176Z,18.87
2022-12-08T12:58:32.208Z,18.87
2022-12-08T13:01:13.933Z,18.88
2022-12-08T13:03:43.463Z,18.88
2022-12-08T13:06:14.637Z,18.87
2022-12-08T13:08:50.372Z,18.87
2022-12-08T13:11:17.008Z,18.88
2022-12-08T13:14:01.362Z,18.86
2022-12-08T13:16:31.814Z,18.86
2022-12-08T13:19:02.229Z,18.87
2022-12-08T13:21:35.232Z,18.86
2022-12-08T13:24:13.765Z,18.86
2022-12-08T13:26:50.544Z,18.86
2022-12-08T13:29:21.520Z,18.85
2022-12-08T13:31:54.677Z,18.84
2022-12-08T13:34:33.215Z,18.85
2022-12-08T13:37:08.169Z,18.83
2022-12-08T13:39:40.673Z,18.84
2022-12-08T13:42:13.109Z,18.83
2022-12-08T13:45:24.243Z,18.84
2022-12-08T13:49:36.587Z,18.84
2022-12-08T13:53:41.737Z,18.83
2022-12-08T13:57:28.593Z,18.83
2022-12-08T14:00:00.628Z,18.83
2022-12-08T14:02:30.634Z,18.82
2022-12-08T14:07:44.685Z,18.80
2022-12-08T14:10:18.181Z,18.80
2022-12-08T14:12:47.125Z,18.80
2022-12-08T14:15:15.235Z,18.80
2022-12-08T14:17:50.908Z,18.79
2022-12-08T14:20:25.234Z,18.79
2022-12-08T14:22:52.801Z,18.79
2022-12-08T14:25:20.340Z,18.79
2022-12-08T14:27:47.200Z,18.79
2022-12-08T14:30:16.587Z,18.79
2022-12-08T14:32:51.193Z,18.79
2022-12-08T14:35:20.729Z,18.79
2022-12-08T14:37:48.580Z,18.78
2022-12-08T14:40:22.765Z,18.77
2022-12-08T14:43:08.033Z,18.78
2022-12-08T14:45:41.321Z,18.77
2022-12-08T14:48:29.346Z,18.78
2022-12-08T14:51:05.684Z,18.74
2022-12-08T14:53:39.756Z,18.75
2022-12-08T14:56:08.765Z,18.74
2022-12-08T14:58:35.396Z,18.74
2022-12-08T15:01:04.645Z,18.73
2022-12-08T15:03:31.337Z,18.73
2022-12-08T15:06:05.215Z,18.74
2022-12-08T15:08:32.285Z,18.73
2022-12-08T15:11:27.568Z,18.73
2022-12-08T15:13:54.516Z,18.73
2022-12-08T15:16:27.262Z,18.72
2022-12-08T15:19:33.720Z,18.73
2022-12-08T15:22:16.751Z,18.72
2022-12-08T15:24:43.275Z,18.72
2022-12-08T15:27:16.750Z,18.72
2022-12-08T15:29:43.244Z,18.72
2022-12-08T15:32:11.195Z,18.70
2022-12-08T15:34:37.669Z,18.70
2022-12-08T15:37:05.022Z,18.70
2022-12-08T15:39:33.635Z,18.68
2022-12-08T15:42:01.968Z,18.68
2022-12-08T15:44:29.293Z,18.69
2022-12-08T15:46:56.121Z,18.68
2022-12-08T15:49:23.822Z,18.68
2022-12-08T15:51:56.513Z,18.67
2022-12-08T15:54:27.240Z,18.67
2022-12-08T15:57:18.667Z,18.66
2022-12-08T15:59:42.836Z,18.66
2022-12-08T16:02:14.537Z,18.66
2022-12-08T16:07:30.362Z,18.64
2022-12-08T16:09:57.227Z,18.64
2022-12-08T16:15:59.256Z,18.62
2022-12-08T16:18:26.095Z,18.61
2022-12-08T16:23:44.147Z,18.57
2022-12-08T16:26:44.144Z,18.60
2022-12-08T16:29:05.283Z,18.60
2022-12-08T16:31:32.040Z,18.54
2022-12-08T16:33:58.752Z,18.56
2022-12-08T16:36:25.390Z,18.56
2022-12-08T16:38:51.973Z,18.56
2022-12-08T16:41:36.880Z,18.55
2022-12-08T16:44:05.659Z,18.56
2022-12-08T16:46:32.255Z,18.56
2022-12-08T16:48:59.153Z,18.57
2022-12-08T16:51:27.222Z,18.55
2022-12-08T16:53:55.356Z,18.55
2022-12-08T16:56:26.202Z,18.56
2022-12-08T16:58:57.229Z,18.55
2022-12-08T17:01:23.807Z,18.53
2022-12-08T17:04:07.470Z,18.52
2022-12-08T17:06:36.880Z,18.54
2022-12-08T17:09:03.925Z,18.53
2022-12-08T17:11:37.468Z,18.53
2022-12-08T17:14:05.859Z,18.53
2022-12-08T17:16:32.420Z,18.53
2022-12-08T17:18:59.060Z,18.53
2022-12-08T17:21:25.600Z,18.52
2022-12-08T17:23:52.235Z,18.52
2022-12-08T17:26:18.790Z,18.52
2022-12-08T17:29:00.036Z,18.50
2022-12-08T17:31:29.869Z,18.47
2022-12-08T17:34:05.743Z,18.53
2022-12-08T17:36:32.577Z,18.51
2022-12-08T17:39:00.234Z,18.52
2022-12-08T17:41:27.145Z,18.50
2022-12-08T17:43:53.769Z,18.49
2022-12-08T17:46:21.073Z,18.49
2022-12-08T17:48:47.743Z,18.47
2022-12-08T17:51:14.894Z,18.48
2022-12-08T17:53:41.366Z,18.46
2022-12-08T17:56:15.715Z,18.47
2022-12-08T17:58:42.316Z,18.46
2022-12-08T18:01:09.958Z,18.47
2022-12-08T18:03:37.166Z,18.47
2022-12-08T18:06:08.093Z,18.46
2022-12-08T18:08:34.872Z,18.46
2022-12-08T18:11:01.753Z,18.46
2022-12-08T18:13:28.571Z,18.44
2022-12-08T18:15:55.169Z,18.44
2022-12-08T18:18:22.660Z,18.43
2022-12-08T18:20:49.885Z,18.43
2022-12-08T18:23:17.192Z,18.43
2022-12-08T18:25:44.320Z,18.48
2022-12-08T18:28:10.923Z,18.55
2022-12-08T18:30:37.568Z,18.66
2022-12-08T18:33:04.984Z,18.81
2022-12-08T18:35:31.878Z,18.88
2022-12-08T18:37:59.997Z,18.98
2022-12-08T18:40:27.774Z,19.14
2022-12-08T18:42:54.353Z,19.20
2022-12-08T18:45:22.734Z,19.23
2022-12-08T18:47:51.002Z,19.31
2022-12-08T18:50:17.854Z,19.28
2022-12-08T18:52:45.785Z,19.44
2022-12-08T18:55:12.827Z,19.50
2022-12-08T18:57:41.595Z,19.56
2022-12-08T19:00:11.780Z,19.58
2022-12-08T19:02:38.824Z,19.56
2022-12-08T19:05:06.442Z,19.52
2022-12-08T19:07:33.059Z,19.51
2022-12-08T19:09:59.636Z,19.70
2022-12-08T19:12:26.254Z,19.70
2022-12-08T19:14:52.913Z,19.74
2022-12-08T19:17:19.505Z,20.02
2022-12-08T19:19:46.060Z,19.92
2022-12-08T19:22:12.662Z,19.85
2022-12-08T19:24:39.180Z,19.71
2022-12-08T19:27:05.861Z,19.77
2022-12-08T19:29:32.484Z,19.71
2022-12-08T19:32:00.272Z,19.71
2022-12-08T19:34:26.878Z,19.72
2022-12-08T19:36:53.420Z,19.74
2022-12-08T19:39:40.572Z,19.78
2022-12-08T19:42:36.928Z,20.02
2022-12-08T19:45:06.369Z,19.98
2022-12-08T19:47:33.286Z,19.88
2022-12-08T19:50:18.587Z,19.80
2022-12-08T19:52:45.334Z,19.72
2022-12-08T19:55:12.609Z,19.88
2022-12-08T19:57:39.259Z,19.99
2022-12-08T20:00:06.723Z,19.93
2022-12-08T20:02:36.532Z,20.03
2022-12-08T20:05:04.979Z,20.14
2022-12-08T20:07:31.395Z,20.25
2022-12-08T20:09:57.915Z,20.11
2022-12-08T20:12:24.515Z,20.08
2022-12-08T20:14:51.239Z,20.33
2022-12-08T20:17:17.868Z,20.08
2022-12-08T20:19:44.444Z,20.10
2022-12-08T20:22:11.001Z,20.00
2022-12-08T20:24:37.560Z,19.94
2022-12-08T20:27:04.225Z,19.82
2022-12-08T20:29:30.753Z,19.79
2022-12-08T20:31:57.380Z,19.63
2022-12-08T20:34:23.972Z,19.58
2022-12-08T20:36:50.649Z,19.49
2022-12-08T20:39:17.841Z,19.43
2022-12-08T20:41:45.624Z,19.42
2022-12-08T20:44:12.530Z,19.38
2022-12-08T20:46:39.258Z,19.31
2022-12-08T20:49:06.053Z,19.27
2022-12-08T20:51:33.326Z,19.22
2022-12-08T20:54:00.238Z,19.18
2022-12-08T20:56:27.151Z,19.14
2022-12-08T20:58:54.561Z,19.10
2022-12-08T21:01:23.106Z,19.07
2022-12-08T21:03:50.519Z,19.01
2022-12-08T21:06:21.611Z,18.99
2022-12-08T21:08:48.600Z,18.96
2022-12-08T21:11:15.706Z,18.93
2022-12-08T21:13:43.167Z,18.92
2022-12-08T21:16:15.581Z,18.90
2022-12-08T21:18:42.290Z,18.88
2022-12-08T21:21:11.278Z,18.86
2022-12-08T21:23:38.099Z,18.87
2022-12-08T21:26:13.748Z,18.85
2022-12-08T21:28:40.710Z,18.83
2022-12-08T21:31:13.055Z,18.80
2022-12-08T21:33:39.949Z,18.78
2022-12-08T21:36:18.385Z,18.76
2022-12-08T21:38:45.298Z,18.74
2022-12-08T21:41:14.850Z,18.75
2022-12-08T21:43:42.464Z,18.74
2022-12-08T21:46:16.836Z,18.73
2022-12-08T21:48:43.868Z,18.72
2022-12-08T21:51:10.960Z,18.71
2022-12-08T21:53:37.709Z,18.70
2022-12-08T21:56:08.768Z,18.69
2022-12-08T21:58:35.408Z,18.64
2022-12-08T22:01:10.819Z,18.65
2022-12-08T22:03:39.177Z,18.62
2022-12-08T22:06:11.514Z,18.60
2022-12-08T22:08:38.959Z,18.59
2022-12-08T22:11:06.436Z,18.59
2022-12-08T22:13:35.010Z,18.59
2022-12-08T22:16:03.835Z,18.59
2022-12-08T22:18:30.860Z,18.56
2022-12-08T22:20:57.874Z,18.56
2022-12-08T22:23:24.383Z,18.55
2022-12-08T22:26:00.933Z,18.47
2022-12-08T22:28:30.691Z,18.54
2022-12-08T22:30:57.433Z,18.52
2022-12-08T22:33:24.145Z,18.52
2022-12-08T22:36:08.129Z,18.52
2022-12-08T22:38:34.773Z,18.49
2022-12-08T22:41:04.336Z,18.50
2022-12-08T22:43:31.281Z,18.49
2022-12-08T22:45:57.977Z,18.46
2022-12-08T22:48:25.132Z,18.46
2022-12-08T22:50:51.615Z,18.45
2022-12-08T22:53:18.190Z,18.44
2022-12-08T22:55:44.910Z,18.43
2022-12-08T22:58:11.879Z,18.42
2022-12-08T23:00:38.588Z,18.42
2022-12-08T23:03:06.387Z,18.40
2022-12-08T23:05:37.591Z,18.41
2022-12-08T23:08:05.559Z,18.39
2022-12-08T23:10:33.047Z,18.39
2022-12-08T23:13:03.813Z,18.38
2022-12-08T23:15:30.789Z,18.39
2022-12-08T23:17:57.504Z,18.40
2022-12-08T23:20:24.120Z,18.38
2022-12-08T23:22:50.883Z,18.35
2022-12-08T23:25:18.542Z,18.37
2022-12-08T23:27:46.161Z,18.36
2022-12-08T23:30:13.687Z,18.36
2022-12-08T23:32:40.257Z,18.36
2022-12-08T23:35:08.013Z,18.34
2022-12-08T23:37:34.781Z,18.34
2022-12-08T23:40:01.442Z,18.34
2022-12-08T23:42:30.106Z,18.33
2022-12-08T23:44:56.663Z,18.33
2022-12-08T23:47:23.253Z,18.31
2022-12-08T23:49:49.913Z,18.28
2022-12-08T23:52:16.523Z,18.31
2022-12-08T23:54:44.442Z,18.31
2022-12-08T23:57:11.180Z,18.30
2022-12-08T23:59:37.774Z,18.30
